KBFD

Bradford Regional Airport

Bradford, Pennsylvania, USA
METAR KBFD 242353Z AUTO 13004KT 8SM -RA FEW042 OVC055 09/07 A3007 RMK AO2 SLP185 P0002 60007 T00890072 10111 20089 56012
Observed Flight Rules
Apr-24 @ 23:53 UTC (38 minutes ago) Visual Flight Rules
Wind Visibility Clouds Conditions
130° at 4 knots 8 miles
  • Few at 4,200' AGL
  • Overcast at 5,500' AGL
  • Light Rain
Temperatures Readings Precipitation
Current 9°C / 48°F
Dewpoint 7°C / 45°F
Humidity 87%
Altimeter 30.07" Hg
Pressure 1018.5 hPa
Elevation 647
Current Rain 0.02
METAR KBFD 242353Z AUTO 13004KT 8SM -RA FEW042 OVC055 09/07 A3007 RMK AO2 SLP185 P0002 60007 T00890072 10111 20089 56012
Observed Flight Rules
Apr-24 @ 23:53 UTC
(38 minutes ago)
VFR
Wind Visibility
130° at 4 knots 8 miles
Clouds
  • Few at 4,200' AGL
  • Overcast at 5,500' AGL
Conditions
  • Light Rain
Temperature Dewpoint
9°C / 48°F 7°C / 45°F
Humidity Altimeter Pressure
87% 30.07" Hg 1018.5 hPa
Current Rain
0.02